createdAt,value
2023-05-05T00:01:17.022Z,13.52
2023-05-05T00:06:09.015Z,13.90
2023-05-05T00:11:00.998Z,10.38
2023-05-05T00:15:53.912Z,10.73
2023-05-05T00:20:49.036Z,12.32
2023-05-05T00:25:41.012Z,12.63
2023-05-05T00:30:33.721Z,11.60
2023-05-05T00:35:25.639Z,13.77
2023-05-05T00:40:18.878Z,11.70
2023-05-05T00:45:12.681Z,11.20
2023-05-05T00:50:07.489Z,11.68
2023-05-05T00:54:59.834Z,10.30
2023-05-05T00:59:51.748Z,9.30
2023-05-05T01:04:43.754Z,10.98
2023-05-05T01:09:36.623Z,11.32
2023-05-05T01:14:53.264Z,11.50
2023-05-05T01:19:56.769Z,9.80
2023-05-05T01:25:13.354Z,11.45
2023-05-05T01:30:26.893Z,10.05
2023-05-05T01:35:20.565Z,11.38
2023-05-05T01:40:13.812Z,13.93
2023-05-05T01:45:09.554Z,11.82
2023-05-05T01:50:02.557Z,11.30
2023-05-05T01:54:56.055Z,10.80
2023-05-05T01:59:49.296Z,11.15
2023-05-05T02:04:45.137Z,11.18
2023-05-05T02:09:38.746Z,10.10
2023-05-05T02:14:31.016Z,10.35
2023-05-05T02:19:28.756Z,13.35
2023-05-05T02:24:20.785Z,11.97
2023-05-05T02:29:20.089Z,11.43
2023-05-05T02:34:16.429Z,11.40
2023-05-05T02:39:17.937Z,10.02
2023-05-05T02:44:12.823Z,10.23
2023-05-05T02:49:05.236Z,10.85
2023-05-05T02:53:57.617Z,10.55
2023-05-05T02:59:47.744Z,13.32
2023-05-05T03:05:17.494Z,11.90
2023-05-05T03:10:15.348Z,10.18
2023-05-05T03:15:12.672Z,10.20
2023-05-05T03:20:07.279Z,11.80
2023-05-05T03:25:02.234Z,9.57
2023-05-05T03:29:54.151Z,13.35
2023-05-05T03:34:46.922Z,9.88
2023-05-05T03:39:39.487Z,11.80
2023-05-05T03:44:32.677Z,13.93
2023-05-05T03:49:25.081Z,9.05
2023-05-05T03:54:17.821Z,8.05
2023-05-05T03:59:09.715Z,11.65
2023-05-05T04:04:02.407Z,8.13
2023-05-05T04:08:54.424Z,6.68
2023-05-05T04:13:46.470Z,6.90
2023-05-05T04:18:38.813Z,9.18
2023-05-05T04:23:31.098Z,5.97
2023-05-05T04:28:23.102Z,6.20
2023-05-05T04:33:14.995Z,6.53
2023-05-05T04:38:07.262Z,6.78
2023-05-05T04:42:59.612Z,7.80
2023-05-05T04:47:51.624Z,6.05
2023-05-05T04:52:43.594Z,6.60
2023-05-05T04:57:35.904Z,10.98
2023-05-05T05:02:28.255Z,9.90
2023-05-05T05:07:20.238Z,6.55
2023-05-05T05:12:12.173Z,6.05
2023-05-05T05:17:04.463Z,9.57
2023-05-05T05:21:57.546Z,6.60
2023-05-05T05:26:49.630Z,9.40
2023-05-05T05:31:41.965Z,8.68
2023-05-05T05:36:33.967Z,5.68
2023-05-05T05:41:25.829Z,6.72
2023-05-05T05:46:18.461Z,9.75
2023-05-05T05:51:11.731Z,8.15
2023-05-05T05:56:03.875Z,8.90
2023-05-05T06:00:55.827Z,5.78
2023-05-05T06:05:47.959Z,6.00
2023-05-05T06:10:41.310Z,8.13
2023-05-05T06:15:37.366Z,7.60
2023-05-05T06:20:31.081Z,6.60
2023-05-05T06:25:23.136Z,6.53
2023-05-05T06:30:16.528Z,8.65
2023-05-05T06:35:09.242Z,7.60
2023-05-05T06:40:01.056Z,6.30
2023-05-05T06:44:53.114Z,8.10
2023-05-05T06:49:44.985Z,7.60
2023-05-05T06:54:36.840Z,8.32
2023-05-05T06:59:28.628Z,9.52
2023-05-05T07:04:21.593Z,7.95
2023-05-05T07:09:14.718Z,7.45
2023-05-05T07:14:07.518Z,8.05
2023-05-05T07:19:01.010Z,13.50
2023-05-05T07:23:52.787Z,8.40
2023-05-05T07:28:45.108Z,9.95
2023-05-05T07:33:37.239Z,9.45
2023-05-05T07:38:29.056Z,11.05
2023-05-05T07:43:20.957Z,11.27
2023-05-05T07:48:12.814Z,9.38
2023-05-05T07:53:13.844Z,10.25
2023-05-05T07:58:06.794Z,12.45
2023-05-05T08:02:58.624Z,15.75
2023-05-05T08:07:50.564Z,13.02
2023-05-05T08:12:42.590Z,15.93
2023-05-05T08:17:48.985Z,18.75
2023-05-05T08:22:42.497Z,17.00
2023-05-05T08:27:35.595Z,14.88
2023-05-05T08:32:29.698Z,20.70
2023-05-05T08:37:21.718Z,16.27
2023-05-05T08:42:19.791Z,11.85
2023-05-05T08:47:21.306Z,14.05
2023-05-05T08:52:18.914Z,14.15
2023-05-05T08:57:11.057Z,11.87
2023-05-05T09:02:05.146Z,13.70
2023-05-05T09:07:00.908Z,18.85
2023-05-05T09:11:54.084Z,11.60
2023-05-05T09:16:45.891Z,11.02
2023-05-05T09:21:46.540Z,9.40
2023-05-05T09:26:43.757Z,10.80
2023-05-05T09:31:37.203Z,15.38
2023-05-05T09:36:44.365Z,14.00
2023-05-05T09:41:41.197Z,15.00
2023-05-05T09:46:33.469Z,14.80
2023-05-05T09:51:32.004Z,16.17
2023-05-05T09:56:38.143Z,11.50
2023-05-05T10:01:30.042Z,16.52
2023-05-05T10:06:39.675Z,10.65
2023-05-05T10:11:32.328Z,10.82
2023-05-05T10:16:24.976Z,11.73
2023-05-05T10:21:21.687Z,8.10
2023-05-05T10:26:14.896Z,11.73
2023-05-05T10:31:24.176Z,10.25
2023-05-05T10:36:17.986Z,10.77
2023-05-05T10:41:11.816Z,11.20
2023-05-05T10:46:04.249Z,12.73
2023-05-05T10:51:09.438Z,10.23
2023-05-05T10:56:30.476Z,9.20
2023-05-05T11:01:30.613Z,9.30
2023-05-05T11:06:22.684Z,8.85
2023-05-05T11:11:14.512Z,9.98
2023-05-05T11:16:27.165Z,11.23
2023-05-05T11:21:19.292Z,11.15
2023-05-05T11:26:12.423Z,11.73
2023-05-05T11:31:04.210Z,10.57
2023-05-05T11:36:08.063Z,8.40
2023-05-05T11:41:08.368Z,12.60
2023-05-05T11:46:16.997Z,8.85
2023-05-05T11:56:10.320Z,8.60
2023-05-05T12:01:08.528Z,8.27
2023-05-05T12:06:00.316Z,8.68
2023-05-05T12:10:52.129Z,8.48
2023-05-05T12:15:43.995Z,7.93
2023-05-05T12:20:36.810Z,7.18
2023-05-05T12:25:35.269Z,10.77
2023-05-05T12:30:27.120Z,9.05
2023-05-05T12:35:20.008Z,10.65
2023-05-05T12:40:45.085Z,6.85
2023-05-05T12:45:37.554Z,7.00
2023-05-05T12:50:31.042Z,7.22
2023-05-05T12:55:36.542Z,8.40
2023-05-05T13:00:29.402Z,8.73
2023-05-05T13:05:36.546Z,9.02
2023-05-05T13:10:28.653Z,10.20
2023-05-05T13:15:20.575Z,9.13
2023-05-05T13:20:12.526Z,7.88
2023-05-05T13:25:04.583Z,7.70
2023-05-05T13:29:56.334Z,7.13
2023-05-05T13:34:48.151Z,7.25
2023-05-05T13:39:40.017Z,7.97
2023-05-05T13:44:31.933Z,8.63
2023-05-05T13:49:24.005Z,9.75
2023-05-05T13:54:15.862Z,8.40
2023-05-05T13:59:07.785Z,16.55
2023-05-05T14:04:00.481Z,8.50
2023-05-05T14:08:54.000Z,8.48
2023-05-05T14:13:46.671Z,8.27
2023-05-05T14:18:38.509Z,7.80
2023-05-05T14:23:30.518Z,9.48
2023-05-05T14:28:22.388Z,12.15
2023-05-05T14:33:14.263Z,8.15
2023-05-05T14:38:06.161Z,8.02
2023-05-05T14:42:58.136Z,7.85
2023-05-05T14:47:50.155Z,12.88
2023-05-05T14:52:42.255Z,7.38
2023-05-05T14:57:34.072Z,7.28
2023-05-05T15:02:26.171Z,9.57
2023-05-05T15:07:18.019Z,7.95
2023-05-05T15:12:09.800Z,8.43
2023-05-05T15:17:01.559Z,8.40
2023-05-05T15:21:54.174Z,7.93
2023-05-05T15:26:45.997Z,7.80
2023-05-05T15:31:37.915Z,8.57
2023-05-05T15:36:29.760Z,8.68
2023-05-05T15:41:21.681Z,7.75
2023-05-05T15:46:13.605Z,8.02
2023-05-05T15:51:05.482Z,9.05
2023-05-05T15:55:57.355Z,7.60
2023-05-05T16:00:49.135Z,7.90
2023-05-05T16:05:41.994Z,8.65
2023-05-05T16:10:33.804Z,7.32
2023-05-05T16:15:25.570Z,7.05
2023-05-05T16:20:17.555Z,8.00
2023-05-05T16:25:09.770Z,6.22
2023-05-05T16:30:01.877Z,10.38
2023-05-05T16:34:53.696Z,6.53
2023-05-05T16:39:45.496Z,7.30
2023-05-05T16:44:37.589Z,6.88
2023-05-05T16:49:29.410Z,6.57
2023-05-05T16:54:21.263Z,16.17
2023-05-05T16:59:13.217Z,6.22
2023-05-05T17:04:05.149Z,9.43
2023-05-05T17:08:57.058Z,8.85
2023-05-05T17:13:48.894Z,6.93
2023-05-05T17:18:40.868Z,6.13
2023-05-05T17:23:32.935Z,6.05
2023-05-05T17:28:24.777Z,6.32
2023-05-05T17:33:20.945Z,6.32
2023-05-05T17:38:13.023Z,8.23
2023-05-05T17:43:04.919Z,6.47
2023-05-05T17:47:56.683Z,5.93
2023-05-05T17:52:48.567Z,7.47
2023-05-05T17:57:40.463Z,7.32
2023-05-05T18:02:32.424Z,6.13
2023-05-05T18:07:24.262Z,6.43
2023-05-05T18:12:17.553Z,5.90
2023-05-05T18:17:09.390Z,6.60
2023-05-05T18:22:01.759Z,5.57
2023-05-05T18:26:53.774Z,5.72
2023-05-05T18:31:48.804Z,5.72
2023-05-05T18:36:40.683Z,5.07
2023-05-05T18:41:32.995Z,6.22
2023-05-05T18:46:24.835Z,6.43
2023-05-05T18:51:17.040Z,5.80
2023-05-05T18:56:08.846Z,5.88
2023-05-05T19:01:00.690Z,7.97
2023-05-05T19:05:52.645Z,6.43
2023-05-05T19:10:44.471Z,7.35
2023-05-05T19:15:36.448Z,6.25
2023-05-05T19:20:31.037Z,8.20
2023-05-05T19:25:22.793Z,8.45
2023-05-05T19:30:14.796Z,10.10
2023-05-05T19:35:08.469Z,8.95
2023-05-05T19:40:00.389Z,8.10
2023-05-05T19:44:52.212Z,10.32
2023-05-05T19:49:43.968Z,14.20
2023-05-05T19:54:36.381Z,13.43
2023-05-05T19:59:28.306Z,19.33
2023-05-05T20:04:20.204Z,18.23
2023-05-05T20:09:12.090Z,20.10
2023-05-05T20:14:04.229Z,23.02
2023-05-05T20:18:56.080Z,23.15
2023-05-05T20:23:48.180Z,22.70
2023-05-05T20:28:43.303Z,18.38
2023-05-05T20:33:36.926Z,18.30
2023-05-05T20:38:28.795Z,18.58
2023-05-05T20:43:21.328Z,18.25
2023-05-05T20:48:13.175Z,16.65
2023-05-05T20:53:07.282Z,18.08
2023-05-05T20:57:59.105Z,17.80
2023-05-05T21:02:51.220Z,13.90
2023-05-05T21:07:43.074Z,15.63
2023-05-05T21:12:35.237Z,12.18
2023-05-05T21:17:27.626Z,10.40
2023-05-05T21:22:19.925Z,11.50
2023-05-05T21:27:12.172Z,9.20
2023-05-05T21:32:05.128Z,9.20
2023-05-05T21:36:57.421Z,7.50
2023-05-05T21:41:49.455Z,5.75
2023-05-05T21:46:41.604Z,5.45
2023-05-05T21:51:34.739Z,4.88
2023-05-05T21:56:26.566Z,5.00
2023-05-05T22:01:18.423Z,6.38
2023-05-05T22:06:10.404Z,4.88
2023-05-05T22:11:02.308Z,4.40
2023-05-05T22:15:54.113Z,16.63
2023-05-05T22:20:46.940Z,3.60
2023-05-05T22:25:38.863Z,12.75
2023-05-05T22:30:30.918Z,4.88
2023-05-05T22:35:22.703Z,3.42
2023-05-05T22:40:14.642Z,3.28
2023-05-05T22:45:07.225Z,4.35
2023-05-05T22:49:59.196Z,4.30
2023-05-05T22:54:51.079Z,4.35
2023-05-05T22:59:42.880Z,3.88
2023-05-05T23:04:34.704Z,3.38
2023-05-05T23:09:26.498Z,4.60
2023-05-05T23:14:19.636Z,3.35
2023-05-05T23:19:12.273Z,3.33
2023-05-05T23:24:04.271Z,4.57
2023-05-05T23:28:56.148Z,5.82
2023-05-05T23:33:48.315Z,2.83
2023-05-05T23:38:40.096Z,5.70
2023-05-05T23:43:31.880Z,4.47
2023-05-05T23:48:23.747Z,4.47
2023-05-05T23:53:16.140Z,4.15
2023-05-05T23:58:08.003Z,4.25
